sensor_id;sensor_type;location;lat;lon;timestamp;P1;durP1;ratioP1;P2;durP2;ratioP2
9667;SDS011;4872;48.316;10.650;2023-04-07T04:05:37;7.40;;;6.20;;
9667;SDS011;4872;48.316;10.650;2023-04-07T04:08:05;8.90;;;6.50;;
9667;SDS011;4872;48.316;10.650;2023-04-07T04:10:31;6.67;;;5.27;;
9667;SDS011;4872;48.316;10.650;2023-04-07T04:12:58;7.70;;;6.20;;
9667;SDS011;4872;48.316;10.650;2023-04-07T04:15:27;8.57;;;6.27;;
9667;SDS011;4872;48.316;10.650;2023-04-07T04:17:54;8.30;;;6.77;;
9667;SDS011;4872;48.316;10.650;2023-04-07T04:20:21;8.93;;;6.40;;
9667;SDS011;4872;48.316;10.650;2023-04-07T04:22:49;8.33;;;6.97;;
9667;SDS011;4872;48.316;10.650;2023-04-07T04:25:16;8.07;;;5.67;;
9667;SDS011;4872;48.316;10.650;2023-04-07T04:27:43;8.07;;;6.73;;
9667;SDS011;4872;48.316;10.650;2023-04-07T04:30:10;9.60;;;6.90;;
9667;SDS011;4872;48.316;10.650;2023-04-07T04:32:36;7.00;;;6.30;;
9667;SDS011;4872;48.316;10.650;2023-04-07T04:35:03;8.93;;;6.40;;
9667;SDS011;4872;48.316;10.650;2023-04-07T04:37:31;8.60;;;6.73;;
9667;SDS011;4872;48.316;10.650;2023-04-07T04:39:59;10.13;;;7.00;;
9667;SDS011;4872;48.316;10.650;2023-04-07T04:42:25;7.70;;;6.63;;
9667;SDS011;4872;48.316;10.650;2023-04-07T04:44:52;10.60;;;6.83;;
9667;SDS011;4872;48.316;10.650;2023-04-07T04:47:19;8.30;;;6.53;;
9667;SDS011;4872;48.316;10.650;2023-04-07T04:49:46;8.03;;;6.30;;
9667;SDS011;4872;48.316;10.650;2023-04-07T04:52:12;11.60;;;7.67;;
9667;SDS011;4872;48.316;10.650;2023-04-07T04:54:39;8.83;;;7.27;;
9667;SDS011;4872;48.316;10.650;2023-04-07T04:57:07;9.70;;;7.03;;
9667;SDS011;4872;48.316;10.650;2023-04-07T04:59:34;8.97;;;7.37;;
9667;SDS011;4872;48.316;10.650;2023-04-07T05:02:01;8.30;;;6.97;;
9667;SDS011;4872;48.316;10.650;2023-04-07T05:04:27;8.63;;;7.07;;
9667;SDS011;4872;48.316;10.650;2023-04-07T05:06:54;9.63;;;6.90;;
9667;SDS011;4872;48.316;10.650;2023-04-07T05:09:21;9.30;;;7.27;;
9667;SDS011;4872;48.316;10.650;2023-04-07T05:11:48;9.77;;;7.50;;
9667;SDS011;4872;48.316;10.650;2023-04-07T05:14:16;9.53;;;7.07;;
9667;SDS011;4872;48.316;10.650;2023-04-07T05:16:43;8.87;;;6.63;;
9667;SDS011;4872;48.316;10.650;2023-04-07T05:19:09;8.83;;;7.13;;
9667;SDS011;4872;48.316;10.650;2023-04-07T05:21:36;8.30;;;6.73;;
9667;SDS011;4872;48.316;10.650;2023-04-07T05:24:03;9.27;;;7.13;;
9667;SDS011;4872;48.316;10.650;2023-04-07T05:26:30;9.67;;;6.67;;
9667;SDS011;4872;48.316;10.650;2023-04-07T05:28:57;10.87;;;7.60;;
9667;SDS011;4872;48.316;10.650;2023-04-07T05:31:25;12.43;;;8.03;;
9667;SDS011;4872;48.316;10.650;2023-04-07T05:33:51;9.80;;;7.93;;
9667;SDS011;4872;48.316;10.650;2023-04-07T05:36:18;10.40;;;7.30;;
9667;SDS011;4872;48.316;10.650;2023-04-07T05:38:45;9.40;;;7.23;;
9667;SDS011;4872;48.316;10.650;2023-04-07T05:41:12;11.67;;;8.23;;
9667;SDS011;4872;48.316;10.650;2023-04-07T05:43:38;12.60;;;9.43;;
9667;SDS011;4872;48.316;10.650;2023-04-07T05:46:05;9.53;;;7.47;;
9667;SDS011;4872;48.316;10.650;2023-04-07T05:48:33;10.60;;;8.07;;
9667;SDS011;4872;48.316;10.650;2023-04-07T05:51:00;10.40;;;7.40;;
9667;SDS011;4872;48.316;10.650;2023-04-07T05:53:27;10.27;;;7.43;;
9667;SDS011;4872;48.316;10.650;2023-04-07T05:55:53;10.50;;;7.93;;
9667;SDS011;4872;48.316;10.650;2023-04-07T05:58:20;10.67;;;8.00;;
9667;SDS011;4872;48.316;10.650;2023-04-07T06:00:47;10.87;;;8.40;;
9667;SDS011;4872;48.316;10.650;2023-04-07T06:03:15;12.47;;;9.07;;
9667;SDS011;4872;48.316;10.650;2023-04-07T06:05:45;11.53;;;10.10;;
9667;SDS011;4872;48.316;10.650;2023-04-07T06:08:12;11.80;;;10.50;;
9667;SDS011;4872;48.316;10.650;2023-04-07T06:10:39;10.27;;;9.13;;
9667;SDS011;4872;48.316;10.650;2023-04-07T06:13:06;10.77;;;9.33;;
9667;SDS011;4872;48.316;10.650;2023-04-07T06:15:33;11.00;;;8.73;;
9667;SDS011;4872;48.316;10.650;2023-04-07T06:18:00;10.33;;;8.90;;
9667;SDS011;4872;48.316;10.650;2023-04-07T06:20:27;13.03;;;10.23;;
9667;SDS011;4872;48.316;10.650;2023-04-07T06:22:55;11.13;;;8.10;;
9667;SDS011;4872;48.316;10.650;2023-04-07T06:25:21;11.03;;;8.17;;
9667;SDS011;4872;48.316;10.650;2023-04-07T06:27:48;8.93;;;7.90;;
9667;SDS011;4872;48.316;10.650;2023-04-07T06:30:18;11.17;;;7.97;;
9667;SDS011;4872;48.316;10.650;2023-04-07T06:32:45;10.00;;;8.07;;
9667;SDS011;4872;48.316;10.650;2023-04-07T06:35:12;8.37;;;7.37;;
9667;SDS011;4872;48.316;10.650;2023-04-07T06:37:39;9.80;;;8.53;;
9667;SDS011;4872;48.316;10.650;2023-04-07T06:40:08;10.03;;;8.20;;
9667;SDS011;4872;48.316;10.650;2023-04-07T06:42:35;10.90;;;8.37;;
9667;SDS011;4872;48.316;10.650;2023-04-07T06:45:01;10.17;;;7.90;;
9667;SDS011;4872;48.316;10.650;2023-04-07T06:47:28;34.97;;;22.73;;
9667;SDS011;4872;48.316;10.650;2023-04-07T06:49:55;13.20;;;9.83;;
9667;SDS011;4872;48.316;10.650;2023-04-07T06:52:22;9.97;;;8.10;;
9667;SDS011;4872;48.316;10.650;2023-04-07T06:54:49;8.90;;;7.77;;
9667;SDS011;4872;48.316;10.650;2023-04-07T06:57:17;10.23;;;8.70;;
9667;SDS011;4872;48.316;10.650;2023-04-07T06:59:43;11.50;;;9.20;;
9667;SDS011;4872;48.316;10.650;2023-04-07T07:02:11;11.60;;;9.07;;
9667;SDS011;4872;48.316;10.650;2023-04-07T07:04:37;11.30;;;8.63;;
9667;SDS011;4872;48.316;10.650;2023-04-07T07:07:04;11.23;;;8.13;;
9667;SDS011;4872;48.316;10.650;2023-04-07T07:09:31;12.33;;;8.80;;
9667;SDS011;4872;48.316;10.650;2023-04-07T07:11:58;46.27;;;24.77;;
9667;SDS011;4872;48.316;10.650;2023-04-07T07:14:27;37.47;;;23.43;;
9667;SDS011;4872;48.316;10.650;2023-04-07T07:16:54;17.33;;;11.87;;
9667;SDS011;4872;48.316;10.650;2023-04-07T07:19:20;26.07;;;14.87;;
9667;SDS011;4872;48.316;10.650;2023-04-07T07:21:47;8.70;;;7.60;;
9667;SDS011;4872;48.316;10.650;2023-04-07T07:24:14;8.57;;;7.47;;
9667;SDS011;4872;48.316;10.650;2023-04-07T07:26:41;9.87;;;8.17;;
9667;SDS011;4872;48.316;10.650;2023-04-07T07:29:09;8.97;;;7.47;;
9667;SDS011;4872;48.316;10.650;2023-04-07T07:31:37;8.90;;;7.10;;
9667;SDS011;4872;48.316;10.650;2023-04-07T07:34:03;8.57;;;6.80;;
9667;SDS011;4872;48.316;10.650;2023-04-07T07:36:30;8.53;;;6.93;;
9667;SDS011;4872;48.316;10.650;2023-04-07T07:38:57;9.27;;;7.10;;
9667;SDS011;4872;48.316;10.650;2023-04-07T07:41:23;26.13;;;17.57;;
9667;SDS011;4872;48.316;10.650;2023-04-07T07:43:51;14.13;;;10.83;;
9667;SDS011;4872;48.316;10.650;2023-04-07T07:46:17;18.13;;;16.33;;
9667;SDS011;4872;48.316;10.650;2023-04-07T07:48:45;9.67;;;7.93;;
9667;SDS011;4872;48.316;10.650;2023-04-07T07:51:12;13.33;;;10.40;;
9667;SDS011;4872;48.316;10.650;2023-04-07T07:53:39;11.20;;;8.57;;
9667;SDS011;4872;48.316;10.650;2023-04-07T07:56:06;7.13;;;6.43;;
9667;SDS011;4872;48.316;10.650;2023-04-07T07:58:33;8.90;;;6.63;;
9667;SDS011;4872;48.316;10.650;2023-04-07T08:00:59;8.57;;;7.30;;
9667;SDS011;4872;48.316;10.650;2023-04-07T08:03:26;9.57;;;7.83;;
9667;SDS011;4872;48.316;10.650;2023-04-07T08:05:54;9.40;;;7.60;;
9667;SDS011;4872;48.316;10.650;2023-04-07T08:08:21;9.37;;;7.13;;
9667;SDS011;4872;48.316;10.650;2023-04-07T08:10:48;7.67;;;6.40;;
9667;SDS011;4872;48.316;10.650;2023-04-07T08:13:14;8.53;;;6.40;;
9667;SDS011;4872;48.316;10.650;2023-04-07T08:15:41;6.90;;;6.20;;
9667;SDS011;4872;48.316;10.650;2023-04-07T08:18:08;9.67;;;8.57;;
9667;SDS011;4872;48.316;10.650;2023-04-07T08:20:35;8.00;;;7.00;;
9667;SDS011;4872;48.316;10.650;2023-04-07T08:23:03;8.40;;;7.23;;
9667;SDS011;4872;48.316;10.650;2023-04-07T08:25:30;10.23;;;7.73;;
9667;SDS011;4872;48.316;10.650;2023-04-07T08:27:56;8.93;;;6.97;;
9667;SDS011;4872;48.316;10.650;2023-04-07T08:30:23;7.47;;;6.23;;
9667;SDS011;4872;48.316;10.650;2023-04-07T08:32:50;9.30;;;7.00;;
9667;SDS011;4872;48.316;10.650;2023-04-07T08:35:17;8.33;;;7.23;;
9667;SDS011;4872;48.316;10.650;2023-04-07T08:37:43;6.77;;;6.13;;
9667;SDS011;4872;48.316;10.650;2023-04-07T08:40:12;7.50;;;6.77;;
9667;SDS011;4872;48.316;10.650;2023-04-07T08:42:39;8.07;;;6.50;;
9667;SDS011;4872;48.316;10.650;2023-04-07T08:45:08;8.27;;;7.47;;
9667;SDS011;4872;48.316;10.650;2023-04-07T08:47:35;7.00;;;6.30;;
9667;SDS011;4872;48.316;10.650;2023-04-07T08:50:03;7.17;;;6.47;;
9667;SDS011;4872;48.316;10.650;2023-04-07T08:52:32;7.57;;;6.17;;
9667;SDS011;4872;48.316;10.650;2023-04-07T08:55:00;6.23;;;5.63;;
9667;SDS011;4872;48.316;10.650;2023-04-07T08:57:32;6.80;;;5.70;;
9667;SDS011;4872;48.316;10.650;2023-04-07T09:00:00;6.83;;;5.67;;
9667;SDS011;4872;48.316;10.650;2023-04-07T09:02:30;6.97;;;5.80;;
9667;SDS011;4872;48.316;10.650;2023-04-07T09:04:57;7.07;;;5.73;;
9667;SDS011;4872;48.316;10.650;2023-04-07T09:07:24;6.13;;;5.50;;
9667;SDS011;4872;48.316;10.650;2023-04-07T09:09:51;8.00;;;6.03;;
9667;SDS011;4872;48.316;10.650;2023-04-07T09:12:18;8.33;;;5.90;;
9667;SDS011;4872;48.316;10.650;2023-04-07T09:14:46;7.50;;;6.70;;
9667;SDS011;4872;48.316;10.650;2023-04-07T09:17:12;6.50;;;5.90;;
9667;SDS011;4872;48.316;10.650;2023-04-07T09:19:39;6.90;;;6.20;;
9667;SDS011;4872;48.316;10.650;2023-04-07T09:22:06;6.97;;;6.17;;
9667;SDS011;4872;48.316;10.650;2023-04-07T09:24:36;6.60;;;5.70;;
9667;SDS011;4872;48.316;10.650;2023-04-07T09:27:10;6.87;;;5.33;;
9667;SDS011;4872;48.316;10.650;2023-04-07T09:29:37;6.80;;;5.93;;
9667;SDS011;4872;48.316;10.650;2023-04-07T09:32:06;7.97;;;6.77;;
9667;SDS011;4872;48.316;10.650;2023-04-07T09:34:34;7.63;;;6.30;;
9667;SDS011;4872;48.316;10.650;2023-04-07T09:37:03;7.07;;;6.30;;
9667;SDS011;4872;48.316;10.650;2023-04-07T09:39:31;9.20;;;7.33;;
9667;SDS011;4872;48.316;10.650;2023-04-07T09:41:58;8.43;;;6.67;;
9667;SDS011;4872;48.316;10.650;2023-04-07T09:44:38;10.13;;;8.97;;
9667;SDS011;4872;48.316;10.650;2023-04-07T09:47:06;9.50;;;6.07;;
9667;SDS011;4872;48.316;10.650;2023-04-07T09:49:34;7.57;;;6.20;;
9667;SDS011;4872;48.316;10.650;2023-04-07T09:52:13;9.40;;;6.03;;
9667;SDS011;4872;48.316;10.650;2023-04-07T09:54:41;7.93;;;5.93;;
9667;SDS011;4872;48.316;10.650;2023-04-07T09:57:09;6.43;;;5.83;;
9667;SDS011;4872;48.316;10.650;2023-04-07T09:59:38;8.60;;;6.90;;
9667;SDS011;4872;48.316;10.650;2023-04-07T10:02:07;6.00;;;5.40;;
9667;SDS011;4872;48.316;10.650;2023-04-07T10:04:34;5.97;;;5.10;;
9667;SDS011;4872;48.316;10.650;2023-04-07T10:07:02;6.87;;;5.80;;
9667;SDS011;4872;48.316;10.650;2023-04-07T10:09:30;5.90;;;5.13;;
9667;SDS011;4872;48.316;10.650;2023-04-07T10:11:57;5.77;;;4.80;;
9667;SDS011;4872;48.316;10.650;2023-04-07T10:14:25;6.43;;;4.97;;
9667;SDS011;4872;48.316;10.650;2023-04-07T10:16:53;5.93;;;5.33;;
9667;SDS011;4872;48.316;10.650;2023-04-07T10:19:21;5.50;;;4.83;;
9667;SDS011;4872;48.316;10.650;2023-04-07T10:21:50;5.03;;;4.60;;
9667;SDS011;4872;48.316;10.650;2023-04-07T10:24:22;5.30;;;4.80;;
9667;SDS011;4872;48.316;10.650;2023-04-07T10:26:59;5.37;;;4.70;;
9667;SDS011;4872;48.316;10.650;2023-04-07T10:29:31;5.30;;;4.80;;
9667;SDS011;4872;48.316;10.650;2023-04-07T10:32:02;5.70;;;5.10;;
9667;SDS011;4872;48.316;10.650;2023-04-07T10:34:55;6.13;;;5.07;;
9667;SDS011;4872;48.316;10.650;2023-04-07T10:37:23;6.87;;;4.90;;
9667;SDS011;4872;48.316;10.650;2023-04-07T10:40:25;5.27;;;4.70;;
9667;SDS011;4872;48.316;10.650;2023-04-07T10:42:54;5.83;;;4.83;;
9667;SDS011;4872;48.316;10.650;2023-04-07T10:48:20;5.77;;;5.27;;
9667;SDS011;4872;48.316;10.650;2023-04-07T10:57:03;5.67;;;5.17;;
9667;SDS011;4872;48.316;10.650;2023-04-07T10:59:35;6.37;;;5.10;;
9667;SDS011;4872;48.316;10.650;2023-04-07T11:04:58;7.53;;;6.37;;
9667;SDS011;4872;48.316;10.650;2023-04-07T11:07:46;4.87;;;4.37;;
9667;SDS011;4872;48.316;10.650;2023-04-07T11:10:19;4.63;;;4.23;;
9667;SDS011;4872;48.316;10.650;2023-04-07T11:12:59;4.67;;;4.20;;
9667;SDS011;4872;48.316;10.650;2023-04-07T11:15:28;4.00;;;3.60;;
9667;SDS011;4872;48.316;10.650;2023-04-07T11:18:08;3.83;;;3.43;;
9667;SDS011;4872;48.316;10.650;2023-04-07T11:20:40;5.27;;;4.50;;
9667;SDS011;4872;48.316;10.650;2023-04-07T11:23:10;4.90;;;3.27;;
9667;SDS011;4872;48.316;10.650;2023-04-07T11:25:36;8.23;;;3.43;;
9667;SDS011;4872;48.316;10.650;2023-04-07T11:28:10;4.47;;;2.93;;
9667;SDS011;4872;48.316;10.650;2023-04-07T11:30:42;3.87;;;3.10;;
9667;SDS011;4872;48.316;10.650;2023-04-07T11:33:13;4.27;;;3.27;;
9667;SDS011;4872;48.316;10.650;2023-04-07T11:35:46;3.83;;;3.40;;
9667;SDS011;4872;48.316;10.650;2023-04-07T11:38:18;3.73;;;3.30;;
9667;SDS011;4872;48.316;10.650;2023-04-07T11:40:45;4.07;;;3.60;;
9667;SDS011;4872;48.316;10.650;2023-04-07T11:43:19;4.83;;;4.30;;
9667;SDS011;4872;48.316;10.650;2023-04-07T11:46:02;5.07;;;4.17;;
9667;SDS011;4872;48.316;10.650;2023-04-07T11:48:30;4.33;;;3.93;;
9667;SDS011;4872;48.316;10.650;2023-04-07T11:50:58;4.93;;;4.27;;
9667;SDS011;4872;48.316;10.650;2023-04-07T11:53:27;5.10;;;4.43;;
9667;SDS011;4872;48.316;10.650;2023-04-07T11:55:59;6.47;;;5.30;;
9667;SDS011;4872;48.316;10.650;2023-04-07T11:58:30;4.43;;;3.90;;
9667;SDS011;4872;48.316;10.650;2023-04-07T12:00:57;5.37;;;3.97;;
9667;SDS011;4872;48.316;10.650;2023-04-07T12:03:29;5.33;;;4.73;;
9667;SDS011;4872;48.316;10.650;2023-04-07T12:05:56;4.23;;;3.80;;
9667;SDS011;4872;48.316;10.650;2023-04-07T12:08:36;6.00;;;4.90;;
9667;SDS011;4872;48.316;10.650;2023-04-07T12:11:04;5.10;;;4.60;;
9667;SDS011;4872;48.316;10.650;2023-04-07T12:13:32;4.97;;;4.00;;
9667;SDS011;4872;48.316;10.650;2023-04-07T12:15:58;4.57;;;3.73;;
9667;SDS011;4872;48.316;10.650;2023-04-07T12:18:25;5.50;;;3.97;;
9667;SDS011;4872;48.316;10.650;2023-04-07T12:20:52;4.40;;;3.83;;
9667;SDS011;4872;48.316;10.650;2023-04-07T12:23:20;3.97;;;3.53;;
9667;SDS011;4872;48.316;10.650;2023-04-07T12:25:49;4.10;;;3.70;;
9667;SDS011;4872;48.316;10.650;2023-04-07T12:28:16;4.23;;;3.83;;
9667;SDS011;4872;48.316;10.650;2023-04-07T12:30:43;5.63;;;3.97;;
9667;SDS011;4872;48.316;10.650;2023-04-07T12:33:10;5.00;;;4.20;;
9667;SDS011;4872;48.316;10.650;2023-04-07T12:35:36;4.40;;;4.00;;
9667;SDS011;4872;48.316;10.650;2023-04-07T12:38:04;4.50;;;4.03;;
9667;SDS011;4872;48.316;10.650;2023-04-07T12:40:32;4.30;;;3.90;;
9667;SDS011;4872;48.316;10.650;2023-04-07T12:43:01;4.40;;;3.90;;
9667;SDS011;4872;48.316;10.650;2023-04-07T12:45:28;4.50;;;4.07;;
9667;SDS011;4872;48.316;10.650;2023-04-07T12:47:55;4.13;;;3.73;;
9667;SDS011;4872;48.316;10.650;2023-04-07T12:50:22;4.23;;;3.83;;
9667;SDS011;4872;48.316;10.650;2023-04-07T12:52:50;4.10;;;3.70;;
9667;SDS011;4872;48.316;10.650;2023-04-07T12:55:18;4.37;;;3.97;;
9667;SDS011;4872;48.316;10.650;2023-04-07T12:57:45;3.77;;;3.33;;
9667;SDS011;4872;48.316;10.650;2023-04-07T13:00:14;4.27;;;3.10;;
9667;SDS011;4872;48.316;10.650;2023-04-07T13:02:41;3.87;;;3.30;;
9667;SDS011;4872;48.316;10.650;2023-04-07T13:05:08;5.57;;;3.50;;
9667;SDS011;4872;48.316;10.650;2023-04-07T13:07:35;3.70;;;2.93;;
9667;SDS011;4872;48.316;10.650;2023-04-07T13:10:02;4.00;;;3.60;;
9667;SDS011;4872;48.316;10.650;2023-04-07T13:12:31;3.97;;;2.73;;
9667;SDS011;4872;48.316;10.650;2023-04-07T13:14:58;3.43;;;2.70;;
9667;SDS011;4872;48.316;10.650;2023-04-07T13:17:27;4.33;;;2.80;;
9667;SDS011;4872;48.316;10.650;2023-04-07T13:19:54;4.03;;;3.50;;
9667;SDS011;4872;48.316;10.650;2023-04-07T13:22:21;3.23;;;2.93;;
9667;SDS011;4872;48.316;10.650;2023-04-07T13:24:47;5.93;;;3.23;;
9667;SDS011;4872;48.316;10.650;2023-04-07T13:27:14;4.20;;;3.80;;
9667;SDS011;4872;48.316;10.650;2023-04-07T13:29:41;5.73;;;3.50;;
9667;SDS011;4872;48.316;10.650;2023-04-07T13:32:08;2.90;;;2.70;;
9667;SDS011;4872;48.316;10.650;2023-04-07T13:34:38;3.37;;;3.07;;
9667;SDS011;4872;48.316;10.650;2023-04-07T13:37:05;2.83;;;2.20;;
9667;SDS011;4872;48.316;10.650;2023-04-07T13:39:32;3.43;;;2.13;;
9667;SDS011;4872;48.316;10.650;2023-04-07T13:41:59;1.93;;;1.63;;
9667;SDS011;4872;48.316;10.650;2023-04-07T13:44:26;2.37;;;2.17;;
9667;SDS011;4872;48.316;10.650;2023-04-07T13:46:53;3.33;;;2.20;;
9667;SDS011;4872;48.316;10.650;2023-04-07T13:49:21;4.10;;;2.73;;
9667;SDS011;4872;48.316;10.650;2023-04-07T13:51:49;3.27;;;2.67;;
9667;SDS011;4872;48.316;10.650;2023-04-07T13:54:16;3.90;;;2.87;;
9667;SDS011;4872;48.316;10.650;2023-04-07T13:56:43;3.83;;;2.80;;
9667;SDS011;4872;48.316;10.650;2023-04-07T13:59:12;4.63;;;3.07;;
9667;SDS011;4872;48.316;10.650;2023-04-07T14:01:38;4.87;;;3.33;;
9667;SDS011;4872;48.316;10.650;2023-04-07T14:04:05;3.50;;;3.07;;
9667;SDS011;4872;48.316;10.650;2023-04-07T14:06:32;3.77;;;3.03;;
9667;SDS011;4872;48.316;10.650;2023-04-07T14:09:02;7.77;;;5.27;;
9667;SDS011;4872;48.316;10.650;2023-04-07T14:11:30;4.97;;;3.37;;
9667;SDS011;4872;48.316;10.650;2023-04-07T14:13:58;5.70;;;3.57;;
9667;SDS011;4872;48.316;10.650;2023-04-07T14:16:26;4.43;;;4.03;;
9667;SDS011;4872;48.316;10.650;2023-04-07T14:18:53;4.40;;;3.90;;
9667;SDS011;4872;48.316;10.650;2023-04-07T14:21:21;4.13;;;3.43;;
9667;SDS011;4872;48.316;10.650;2023-04-07T14:23:48;4.30;;;3.90;;
9667;SDS011;4872;48.316;10.650;2023-04-07T14:26:16;4.77;;;4.20;;
9667;SDS011;4872;48.316;10.650;2023-04-07T14:28:43;4.63;;;4.13;;
9667;SDS011;4872;48.316;10.650;2023-04-07T14:31:13;4.70;;;4.30;;
9667;SDS011;4872;48.316;10.650;2023-04-07T14:33:41;4.90;;;4.30;;
9667;SDS011;4872;48.316;10.650;2023-04-07T14:36:07;4.93;;;4.47;;
9667;SDS011;4872;48.316;10.650;2023-04-07T14:38:34;4.97;;;4.47;;
9667;SDS011;4872;48.316;10.650;2023-04-07T14:41:01;5.00;;;4.20;;
9667;SDS011;4872;48.316;10.650;2023-04-07T14:43:30;3.80;;;3.50;;
9667;SDS011;4872;48.316;10.650;2023-04-07T14:45:56;4.07;;;3.63;;
9667;SDS011;4872;48.316;10.650;2023-04-07T14:48:24;3.53;;;3.17;;
9667;SDS011;4872;48.316;10.650;2023-04-07T14:50:51;4.07;;;3.57;;
9667;SDS011;4872;48.316;10.650;2023-04-07T14:53:17;3.40;;;3.10;;
9667;SDS011;4872;48.316;10.650;2023-04-07T14:55:45;4.67;;;3.40;;
9667;SDS011;4872;48.316;10.650;2023-04-07T14:58:12;3.87;;;3.50;;
9667;SDS011;4872;48.316;10.650;2023-04-07T15:00:40;3.17;;;2.87;;
9667;SDS011;4872;48.316;10.650;2023-04-07T15:03:07;3.10;;;2.80;;
9667;SDS011;4872;48.316;10.650;2023-04-07T15:05:33;3.30;;;3.00;;
9667;SDS011;4872;48.316;10.650;2023-04-07T15:08:00;3.50;;;3.20;;
9667;SDS011;4872;48.316;10.650;2023-04-07T15:10:27;3.13;;;2.83;;
9667;SDS011;4872;48.316;10.650;2023-04-07T15:12:54;3.20;;;2.70;;
9667;SDS011;4872;48.316;10.650;2023-04-07T15:15:21;2.60;;;2.40;;
9667;SDS011;4872;48.316;10.650;2023-04-07T15:17:51;3.70;;;3.37;;
9667;SDS011;4872;48.316;10.650;2023-04-07T15:20:17;3.20;;;2.90;;
9667;SDS011;4872;48.316;10.650;2023-04-07T15:22:44;3.40;;;3.10;;
9667;SDS011;4872;48.316;10.650;2023-04-07T15:25:11;2.73;;;2.53;;
9667;SDS011;4872;48.316;10.650;2023-04-07T15:27:38;2.70;;;2.50;;
9667;SDS011;4872;48.316;10.650;2023-04-07T15:30:05;2.43;;;2.23;;
9667;SDS011;4872;48.316;10.650;2023-04-07T15:32:33;2.90;;;2.60;;
9667;SDS011;4872;48.316;10.650;2023-04-07T15:35:01;2.73;;;2.53;;
9667;SDS011;4872;48.316;10.650;2023-04-07T15:37:28;2.50;;;2.30;;
9667;SDS011;4872;48.316;10.650;2023-04-07T15:39:55;2.70;;;2.43;;
9667;SDS011;4872;48.316;10.650;2023-04-07T15:42:22;2.60;;;2.40;;
9667;SDS011;4872;48.316;10.650;2023-04-07T15:44:49;2.60;;;2.37;;
9667;SDS011;4872;48.316;10.650;2023-04-07T15:47:16;2.27;;;2.07;;
9667;SDS011;4872;48.316;10.650;2023-04-07T15:49:42;2.60;;;2.40;;
9667;SDS011;4872;48.316;10.650;2023-04-07T15:52:11;2.47;;;2.30;;
9667;SDS011;4872;48.316;10.650;2023-04-07T15:54:39;2.97;;;2.67;;
9667;SDS011;4872;48.316;10.650;2023-04-07T15:57:06;2.57;;;2.37;;
9667;SDS011;4872;48.316;10.650;2023-04-07T15:59:32;2.57;;;2.37;;
9667;SDS011;4872;48.316;10.650;2023-04-07T16:02:00;2.57;;;2.33;;
9667;SDS011;4872;48.316;10.650;2023-04-07T16:04:27;2.97;;;2.57;;
9667;SDS011;4872;48.316;10.650;2023-04-07T16:06:53;2.40;;;2.20;;
9667;SDS011;4872;48.316;10.650;2023-04-07T16:09:22;2.73;;;2.50;;
9667;SDS011;4872;48.316;10.650;2023-04-07T16:11:49;2.60;;;2.40;;
9667;SDS011;4872;48.316;10.650;2023-04-07T16:14:16;2.90;;;2.60;;
9667;SDS011;4872;48.316;10.650;2023-04-07T16:16:43;7.27;;;2.70;;
9667;SDS011;4872;48.316;10.650;2023-04-07T16:19:09;2.63;;;2.43;;
9667;SDS011;4872;48.316;10.650;2023-04-07T16:21:38;2.50;;;2.30;;
9667;SDS011;4872;48.316;10.650;2023-04-07T16:24:05;3.40;;;3.00;;
9667;SDS011;4872;48.316;10.650;2023-04-07T16:26:33;3.00;;;2.80;;
9667;SDS011;4872;48.316;10.650;2023-04-07T16:29:00;3.00;;;2.70;;
9667;SDS011;4872;48.316;10.650;2023-04-07T16:31:27;3.57;;;3.10;;
9667;SDS011;4872;48.316;10.650;2023-04-07T16:33:54;3.10;;;2.87;;
9667;SDS011;4872;48.316;10.650;2023-04-07T16:36:20;2.83;;;2.47;;
9667;SDS011;4872;48.316;10.650;2023-04-07T16:38:47;3.87;;;3.03;;
9667;SDS011;4872;48.316;10.650;2023-04-07T16:41:15;3.97;;;3.60;;
9667;SDS011;4872;48.316;10.650;2023-04-07T16:43:43;4.50;;;3.90;;
9667;SDS011;4872;48.316;10.650;2023-04-07T16:46:10;4.13;;;3.73;;
9667;SDS011;4872;48.316;10.650;2023-04-07T16:48:37;4.83;;;4.00;;
9667;SDS011;4872;48.316;10.650;2023-04-07T16:51:04;4.23;;;3.20;;
9667;SDS011;4872;48.316;10.650;2023-04-07T16:53:31;6.03;;;4.27;;
9667;SDS011;4872;48.316;10.650;2023-04-07T16:55:57;5.10;;;4.27;;
9667;SDS011;4872;48.316;10.650;2023-04-07T16:58:24;4.50;;;4.10;;
9667;SDS011;4872;48.316;10.650;2023-04-07T17:00:53;3.87;;;3.50;;
9667;SDS011;4872;48.316;10.650;2023-04-07T17:03:20;4.17;;;3.77;;
9667;SDS011;4872;48.316;10.650;2023-04-07T17:05:47;4.60;;;4.20;;
9667;SDS011;4872;48.316;10.650;2023-04-07T17:08:13;5.37;;;4.13;;
9667;SDS011;4872;48.316;10.650;2023-04-07T17:10:40;5.73;;;4.97;;
9667;SDS011;4872;48.316;10.650;2023-04-07T17:13:07;7.27;;;4.90;;
9667;SDS011;4872;48.316;10.650;2023-04-07T17:15:34;5.30;;;4.80;;
9667;SDS011;4872;48.316;10.650;2023-04-07T17:18:03;6.20;;;4.87;;
9667;SDS011;4872;48.316;10.650;2023-04-07T17:20:30;5.30;;;4.80;;
9667;SDS011;4872;48.316;10.650;2023-04-07T17:22:57;4.63;;;4.20;;
9667;SDS011;4872;48.316;10.650;2023-04-07T17:25:24;4.77;;;4.37;;
9667;SDS011;4872;48.316;10.650;2023-04-07T17:27:50;4.73;;;4.27;;
9667;SDS011;4872;48.316;10.650;2023-04-07T17:30:19;6.03;;;4.83;;
9667;SDS011;4872;48.316;10.650;2023-04-07T17:32:46;5.23;;;4.73;;
9667;SDS011;4872;48.316;10.650;2023-04-07T17:35:15;6.17;;;5.40;;
9667;SDS011;4872;48.316;10.650;2023-04-07T17:37:42;7.47;;;5.13;;
9667;SDS011;4872;48.316;10.650;2023-04-07T17:40:10;6.23;;;5.27;;
9667;SDS011;4872;48.316;10.650;2023-04-07T17:42:37;5.87;;;4.93;;
9667;SDS011;4872;48.316;10.650;2023-04-07T17:45:04;6.13;;;5.00;;
9667;SDS011;4872;48.316;10.650;2023-04-07T17:47:32;7.50;;;5.60;;
9667;SDS011;4872;48.316;10.650;2023-04-07T17:49:59;9.53;;;5.60;;
9667;SDS011;4872;48.316;10.650;2023-04-07T17:52:28;5.90;;;5.17;;
9667;SDS011;4872;48.316;10.650;2023-04-07T17:54:55;5.80;;;4.73;;
9667;SDS011;4872;48.316;10.650;2023-04-07T17:57:22;4.40;;;4.00;;
9667;SDS011;4872;48.316;10.650;2023-04-07T17:59:49;4.97;;;4.20;;
9667;SDS011;4872;48.316;10.650;2023-04-07T18:02:16;5.27;;;4.67;;
9667;SDS011;4872;48.316;10.650;2023-04-07T18:04:42;6.53;;;5.03;;
9667;SDS011;4872;48.316;10.650;2023-04-07T18:07:09;11.43;;;9.67;;
9667;SDS011;4872;48.316;10.650;2023-04-07T18:09:38;13.40;;;10.77;;
9667;SDS011;4872;48.316;10.650;2023-04-07T18:12:07;16.87;;;14.07;;
9667;SDS011;4872;48.316;10.650;2023-04-07T18:14:34;13.23;;;11.13;;
9667;SDS011;4872;48.316;10.650;2023-04-07T18:17:00;18.00;;;9.87;;
9667;SDS011;4872;48.316;10.650;2023-04-07T18:19:27;11.53;;;8.17;;
9667;SDS011;4872;48.316;10.650;2023-04-07T18:21:55;18.60;;;14.13;;
9667;SDS011;4872;48.316;10.650;2023-04-07T18:24:24;15.70;;;10.07;;
9667;SDS011;4872;48.316;10.650;2023-04-07T18:26:52;8.77;;;6.73;;
9667;SDS011;4872;48.316;10.650;2023-04-07T18:29:21;7.53;;;6.07;;
9667;SDS011;4872;48.316;10.650;2023-04-07T18:31:48;6.37;;;5.50;;
9667;SDS011;4872;48.316;10.650;2023-04-07T18:34:15;6.23;;;5.23;;
9667;SDS011;4872;48.316;10.650;2023-04-07T18:36:42;10.83;;;7.10;;
9667;SDS011;4872;48.316;10.650;2023-04-07T18:39:09;21.80;;;15.73;;
9667;SDS011;4872;48.316;10.650;2023-04-07T18:41:36;15.60;;;10.90;;
9667;SDS011;4872;48.316;10.650;2023-04-07T18:44:05;14.57;;;9.90;;
9667;SDS011;4872;48.316;10.650;2023-04-07T18:46:32;11.60;;;8.93;;
9667;SDS011;4872;48.316;10.650;2023-04-07T18:48:58;11.80;;;8.73;;
9667;SDS011;4872;48.316;10.650;2023-04-07T18:51:26;12.43;;;9.90;;
9667;SDS011;4872;48.316;10.650;2023-04-07T18:53:53;16.57;;;10.93;;
9667;SDS011;4872;48.316;10.650;2023-04-07T18:56:20;9.20;;;7.27;;
9667;SDS011;4872;48.316;10.650;2023-04-07T18:58:47;7.00;;;6.30;;
9667;SDS011;4872;48.316;10.650;2023-04-07T19:01:16;7.13;;;6.20;;
9667;SDS011;4872;48.316;10.650;2023-04-07T19:03:43;6.93;;;5.87;;
9667;SDS011;4872;48.316;10.650;2023-04-07T19:06:12;7.23;;;5.83;;
9667;SDS011;4872;48.316;10.650;2023-04-07T19:08:39;8.00;;;6.77;;
9667;SDS011;4872;48.316;10.650;2023-04-07T19:11:06;7.60;;;6.30;;
9667;SDS011;4872;48.316;10.650;2023-04-07T19:13:34;8.93;;;7.63;;
9667;SDS011;4872;48.316;10.650;2023-04-07T19:16:06;7.93;;;7.10;;
9667;SDS011;4872;48.316;10.650;2023-04-07T19:18:35;9.67;;;7.73;;